sensor_id;sensor_type;location;lat;lon;timestamp;pressure;altitude;pressure_sealevel;temperature;humidity
5988;BME280;3021;51.000;6.980;2023-04-08T00:01:10;67331.28;;;9.29;100.00
5988;BME280;3021;51.000;6.980;2023-04-08T00:03:36;67340.38;;;9.34;100.00
5988;BME280;3021;51.000;6.980;2023-04-08T00:06:01;67331.13;;;9.26;100.00
5988;BME280;3021;51.000;6.980;2023-04-08T00:08:28;67330.53;;;9.26;100.00
5988;BME280;3021;51.000;6.980;2023-04-08T00:10:53;67331.28;;;9.29;100.00
5988;BME280;3021;51.000;6.980;2023-04-08T00:13:19;67333.44;;;9.28;100.00
5988;BME280;3021;51.000;6.980;2023-04-08T00:15:44;67334.75;;;9.32;100.00
5988;BME280;3021;51.000;6.980;2023-04-08T00:18:09;67330.69;;;9.28;100.00
5988;BME280;3021;51.000;6.980;2023-04-08T00:20:35;67330.28;;;9.30;100.00
5988;BME280;3021;51.000;6.980;2023-04-08T00:23:00;67331.84;;;9.29;100.00
5988;BME280;3021;51.000;6.980;2023-04-08T00:25:26;67334.00;;;9.29;100.00
5988;BME280;3021;51.000;6.980;2023-04-08T00:27:51;67340.78;;;9.32;100.00
5988;BME280;3021;51.000;6.980;2023-04-08T00:30:16;67331.84;;;9.29;100.00
5988;BME280;3021;51.000;6.980;2023-04-08T00:32:42;67326.78;;;9.27;100.00
5988;BME280;3021;51.000;6.980;2023-04-08T00:35:07;67334.00;;;9.29;100.00
5988;BME280;3021;51.000;6.980;2023-04-08T00:37:33;67333.44;;;9.28;100.00
5988;BME280;3021;51.000;6.980;2023-04-08T00:39:59;67338.47;;;9.30;100.00
5988;BME280;3021;51.000;6.980;2023-04-08T00:42:29;67336.88;;;9.31;100.00
5988;BME280;3021;51.000;6.980;2023-04-08T00:44:55;67338.63;;;9.33;100.00
5988;BME280;3021;51.000;6.980;2023-04-08T00:47:21;67343.66;;;9.35;100.00
5988;BME280;3021;51.000;6.980;2023-04-08T00:49:46;67335.31;;;9.32;100.00
5988;BME280;3021;51.000;6.980;2023-04-08T00:52:12;67339.19;;;9.33;100.00
5988;BME280;3021;51.000;6.980;2023-04-08T00:54:37;67338.03;;;9.32;100.00
5988;BME280;3021;51.000;6.980;2023-04-08T00:57:04;67342.09;;;9.36;100.00
5988;BME280;3021;51.000;6.980;2023-04-08T00:59:30;67331.13;;;9.26;100.00
5988;BME280;3021;51.000;6.980;2023-04-08T01:04:43;67331.69;;;9.27;100.00
5988;BME280;3021;51.000;6.980;2023-04-08T01:07:51;67331.28;;;9.29;100.00
5988;BME280;3021;51.000;6.980;2023-04-08T01:10:25;67335.88;;;9.33;100.00
5988;BME280;3021;51.000;6.980;2023-04-08T01:12:56;67341.50;;;9.36;100.00
5988;BME280;3021;51.000;6.980;2023-04-08T01:15:23;67334.75;;;9.32;100.00
5988;BME280;3021;51.000;6.980;2023-04-08T01:17:52;67339.19;;;9.33;100.00
5988;BME280;3021;51.000;6.980;2023-04-08T01:20:19;67334.75;;;9.32;100.00
5988;BME280;3021;51.000;6.980;2023-04-08T01:23:07;67327.94;;;9.28;100.00
5988;BME280;3021;51.000;6.980;2023-04-08T01:25:36;67333.44;;;9.28;100.00
5988;BME280;3021;51.000;6.980;2023-04-08T01:28:15;67328.38;;;9.26;100.00
5988;BME280;3021;51.000;6.980;2023-04-08T01:30:42;67334.59;;;9.29;100.00
5988;BME280;3021;51.000;6.980;2023-04-08T01:33:11;67332.84;;;9.28;100.00
5988;BME280;3021;51.000;6.980;2023-04-08T01:35:37;67332.41;;;9.30;100.00
5988;BME280;3021;51.000;6.980;2023-04-08T01:38:06;67336.47;;;9.33;100.00
5988;BME280;3021;51.000;6.980;2023-04-08T01:40:34;67341.50;;;9.36;100.00
5988;BME280;3021;51.000;6.980;2023-04-08T01:43:03;67334.91;;;9.34;100.00
5988;BME280;3021;51.000;6.980;2023-04-08T01:45:30;67340.66;;;9.40;100.00
5988;BME280;3021;51.000;6.980;2023-04-08T01:47:55;67340.50;;;9.37;100.00
5988;BME280;3021;51.000;6.980;2023-04-08T01:50:21;67341.09;;;9.38;100.00
5988;BME280;3021;51.000;6.980;2023-04-08T01:52:48;67344.41;;;9.38;100.00
5988;BME280;3021;51.000;6.980;2023-04-08T01:55:18;67339.34;;;9.36;100.00
5988;BME280;3021;51.000;6.980;2023-04-08T01:57:47;67343.81;;;9.38;100.00
5988;BME280;3021;51.000;6.980;2023-04-08T02:00:18;67346.28;;;9.42;100.00
5988;BME280;3021;51.000;6.980;2023-04-08T02:02:44;67342.81;;;9.39;100.00
5988;BME280;3021;51.000;6.980;2023-04-08T02:05:11;67338.34;;;9.38;100.00
5988;BME280;3021;51.000;6.980;2023-04-08T02:07:37;67334.31;;;9.34;100.00
5988;BME280;3021;51.000;6.980;2023-04-08T02:10:03;67335.31;;;9.32;100.00
5988;BME280;3021;51.000;6.980;2023-04-08T02:12:28;67336.75;;;9.29;100.00
5988;BME280;3021;51.000;6.980;2023-04-08T02:14:54;67334.59;;;9.29;100.00
5988;BME280;3021;51.000;6.980;2023-04-08T02:17:43;67332.84;;;9.28;100.00
5988;BME280;3021;51.000;6.980;2023-04-08T02:20:12;67322.19;;;9.23;100.00
5988;BME280;3021;51.000;6.980;2023-04-08T02:22:52;67321.88;;;9.18;100.00
5988;BME280;3021;51.000;6.980;2023-04-08T02:25:22;67312.22;;;9.12;100.00
5988;BME280;3021;51.000;6.980;2023-04-08T02:27:49;67318.44;;;9.15;100.00
5988;BME280;3021;51.000;6.980;2023-04-08T02:30:16;67322.44;;;9.19;100.00
5988;BME280;3021;51.000;6.980;2023-04-08T02:32:43;67320.16;;;9.16;100.00
5988;BME280;3021;51.000;6.980;2023-04-08T02:35:10;67324.06;;;9.18;100.00
5988;BME280;3021;51.000;6.980;2023-04-08T02:37:36;67318.00;;;9.17;100.00
5988;BME280;3021;51.000;6.980;2023-04-08T02:40:02;67319.31;;;9.21;100.00
5988;BME280;3021;51.000;6.980;2023-04-08T02:42:27;67327.06;;;9.23;100.00
5988;BME280;3021;51.000;6.980;2023-04-08T02:44:53;67330.69;;;9.28;100.00
5988;BME280;3021;51.000;6.980;2023-04-08T02:47:18;67333.88;;;9.26;100.00
5988;BME280;3021;51.000;6.980;2023-04-08T02:49:44;67323.47;;;9.17;100.00
5988;BME280;3021;51.000;6.980;2023-04-08T02:52:09;67325.50;;;9.24;100.00
5988;BME280;3021;51.000;6.980;2023-04-08T02:54:34;67323.19;;;9.22;100.00
5988;BME280;3021;51.000;6.980;2023-04-08T02:57:00;67324.34;;;9.23;100.00
5988;BME280;3021;51.000;6.980;2023-04-08T02:59:25;67326.06;;;9.24;100.00
5988;BME280;3021;51.000;6.980;2023-04-08T03:01:51;67324.94;;;9.23;100.00
5988;BME280;3021;51.000;6.980;2023-04-08T03:04:16;67324.34;;;9.23;100.00
5988;BME280;3021;51.000;6.980;2023-04-08T03:06:41;67317.84;;;9.14;100.00
5988;BME280;3021;51.000;6.980;2023-04-08T03:09:07;67316.69;;;9.13;100.00
5988;BME280;3021;51.000;6.980;2023-04-08T03:11:32;67308.63;;;9.06;100.00
5988;BME280;3021;51.000;6.980;2023-04-08T03:13:59;67312.66;;;9.10;100.00
5988;BME280;3021;51.000;6.980;2023-04-08T03:16:24;67314.97;;;9.12;100.00
5988;BME280;3021;51.000;6.980;2023-04-08T03:18:49;67312.06;;;9.09;100.00
5988;BME280;3021;51.000;6.980;2023-04-08T03:21:18;67310.34;;;9.08;100.00
5988;BME280;3021;51.000;6.980;2023-04-08T03:23:43;67311.63;;;9.11;100.00
5988;BME280;3021;51.000;6.980;2023-04-08T03:26:09;67315.53;;;9.12;100.00
5988;BME280;3021;51.000;6.980;2023-04-08T03:28:35;67303.56;;;9.04;100.00
5988;BME280;3021;51.000;6.980;2023-04-08T03:31:04;67310.34;;;9.08;100.00
5988;BME280;3021;51.000;6.980;2023-04-08T03:33:32;67302.28;;;9.01;100.00
5988;BME280;3021;51.000;6.980;2023-04-08T03:35:57;67298.81;;;8.97;100.00
5988;BME280;3021;51.000;6.980;2023-04-08T03:38:23;67301.69;;;9.00;100.00
5988;BME280;3021;51.000;6.980;2023-04-08T03:40:48;67294.75;;;8.94;100.00
5988;BME280;3021;51.000;6.980;2023-04-08T03:43:13;67298.81;;;8.97;100.00
5988;BME280;3021;51.000;6.980;2023-04-08T03:45:39;67297.22;;;8.98;100.00
5988;BME280;3021;51.000;6.980;2023-04-08T03:48:04;67302.84;;;9.01;100.00
5988;BME280;3021;51.000;6.980;2023-04-08T03:50:30;67295.47;;;8.97;100.00
5988;BME280;3021;51.000;6.980;2023-04-08T03:52:58;67298.94;;;9.00;100.00
5988;BME280;3021;51.000;6.980;2023-04-08T03:55:23;67292.47;;;8.92;100.00
5988;BME280;3021;51.000;6.980;2023-04-08T03:57:48;67296.06;;;8.97;100.00
5988;BME280;3021;51.000;6.980;2023-04-08T04:00:14;67300.53;;;8.99;100.00
5988;BME280;3021;51.000;6.980;2023-04-08T04:02:39;67297.06;;;8.96;100.00
5988;BME280;3021;51.000;6.980;2023-04-08T04:05:05;67298.81;;;8.97;100.00
5988;BME280;3021;51.000;6.980;2023-04-08T04:07:33;67301.69;;;9.00;100.00
5988;BME280;3021;51.000;6.980;2023-04-08T04:09:58;67304.72;;;9.05;100.00
5988;BME280;3021;51.000;6.980;2023-04-08T04:12:23;67308.19;;;9.08;100.00
5988;BME280;3021;51.000;6.980;2023-04-08T04:14:49;67306.88;;;9.05;100.00
5988;BME280;3021;51.000;6.980;2023-04-08T04:17:14;67303.41;;;9.02;100.00
5988;BME280;3021;51.000;6.980;2023-04-08T04:19:40;67305.16;;;9.03;100.00
5988;BME280;3021;51.000;6.980;2023-04-08T04:22:05;67303.56;;;9.04;100.00
5988;BME280;3021;51.000;6.980;2023-04-08T04:24:31;67309.75;;;9.07;100.00
5988;BME280;3021;51.000;6.980;2023-04-08T04:26:56;67310.34;;;9.08;100.00
5988;BME280;3021;51.000;6.980;2023-04-08T04:29:21;67315.09;;;9.14;100.00
5988;BME280;3021;51.000;6.980;2023-04-08T04:31:47;67317.41;;;9.16;100.00
5988;BME280;3021;51.000;6.980;2023-04-08T04:34:12;67318.00;;;9.17;100.00
5988;BME280;3021;51.000;6.980;2023-04-08T04:36:37;67317.84;;;9.14;100.00
5988;BME280;3021;51.000;6.980;2023-04-08T04:39:03;67315.53;;;9.12;100.00
5988;BME280;3021;51.000;6.980;2023-04-08T04:41:28;67304.72;;;9.05;100.00
5988;BME280;3021;51.000;6.980;2023-04-08T04:43:53;67291.88;;;8.91;100.00
5988;BME280;3021;51.000;6.980;2023-04-08T04:46:19;67264.50;;;8.72;100.00
5988;BME280;3021;51.000;6.980;2023-04-08T04:48:44;67250.91;;;8.55;100.00
5988;BME280;3021;51.000;6.980;2023-04-08T04:51:10;67240.34;;;8.43;100.00
5988;BME280;3021;51.000;6.980;2023-04-08T04:53:35;67234.16;;;8.40;100.00
5988;BME280;3021;51.000;6.980;2023-04-08T04:56:01;67240.53;;;8.45;100.00
5988;BME280;3021;51.000;6.980;2023-04-08T04:58:26;67252.06;;;8.56;100.00
5988;BME280;3021;51.000;6.980;2023-04-08T05:00:52;67257.41;;;8.63;100.00
5988;BME280;3021;51.000;6.980;2023-04-08T05:03:17;67267.63;;;8.70;100.00
5988;BME280;3021;51.000;6.980;2023-04-08T05:05:42;67276.03;;;8.82;100.00
5988;BME280;3021;51.000;6.980;2023-04-08T05:08:08;67286.25;;;8.89;100.00
5988;BME280;3021;51.000;6.980;2023-04-08T05:10:33;67289.72;;;8.92;100.00
5988;BME280;3021;51.000;6.980;2023-04-08T05:12:58;67293.75;;;8.95;100.00
5988;BME280;3021;51.000;6.980;2023-04-08T05:15:24;67307.91;;;9.03;100.00
5988;BME280;3021;51.000;6.980;2023-04-08T05:17:50;67310.34;;;9.08;100.00
5988;BME280;3021;51.000;6.980;2023-04-08T05:20:15;67309.91;;;9.10;100.00
5988;BME280;3021;51.000;6.980;2023-04-08T05:22:41;67320.72;;;9.17;100.00
5988;BME280;3021;51.000;6.980;2023-04-08T05:25:09;67323.19;;;9.22;100.00
5988;BME280;3021;51.000;6.980;2023-04-08T05:27:34;67327.22;;;9.25;100.00
5988;BME280;3021;51.000;6.980;2023-04-08T05:29:59;67331.13;;;9.26;100.00
5988;BME280;3021;51.000;6.980;2023-04-08T05:32:25;67327.78;;;9.26;100.00
5988;BME280;3021;51.000;6.980;2023-04-08T05:34:51;67332.25;;;9.27;100.00
5988;BME280;3021;51.000;6.980;2023-04-08T05:37:16;67332.25;;;9.27;100.00
5988;BME280;3021;51.000;6.980;2023-04-08T05:39:41;67332.41;;;9.30;100.00
5988;BME280;3021;51.000;6.980;2023-04-08T05:42:07;67332.41;;;9.30;100.00
5988;BME280;3021;51.000;6.980;2023-04-08T05:44:32;67334.59;;;9.29;100.00
5988;BME280;3021;51.000;6.980;2023-04-08T05:46:57;67338.03;;;9.32;100.00
5988;BME280;3021;51.000;6.980;2023-04-08T05:49:24;67328.97;;;9.27;100.00
5988;BME280;3021;51.000;6.980;2023-04-08T05:51:49;67322.59;;;9.21;100.00
5988;BME280;3021;51.000;6.980;2023-04-08T05:54:15;67329.41;;;9.25;100.00
5988;BME280;3021;51.000;6.980;2023-04-08T05:56:40;67326.66;;;9.25;100.00
5988;BME280;3021;51.000;6.980;2023-04-08T05:59:06;67328.53;;;9.29;100.00
5988;BME280;3021;51.000;6.980;2023-04-08T06:01:31;67335.16;;;9.30;100.00
5988;BME280;3021;51.000;6.980;2023-04-08T06:03:56;67332.84;;;9.28;100.00
5988;BME280;3021;51.000;6.980;2023-04-08T06:06:22;67319.31;;;9.21;100.00
5988;BME280;3021;51.000;6.980;2023-04-08T06:08:47;67330.13;;;9.28;100.00
5988;BME280;3021;51.000;6.980;2023-04-08T06:11:13;67346.28;;;9.42;100.00
5988;BME280;3021;51.000;6.980;2023-04-08T06:13:38;67370.09;;;9.66;100.00
5988;BME280;3021;51.000;6.980;2023-04-08T06:16:14;67396.94;;;9.85;100.00
5988;BME280;3021;51.000;6.980;2023-04-08T06:18:41;67420.03;;;10.06;100.00
5988;BME280;3021;51.000;6.980;2023-04-08T06:21:07;67447.34;;;10.32;100.00
5988;BME280;3021;51.000;6.980;2023-04-08T06:23:32;67464.69;;;10.48;100.00
5988;BME280;3021;51.000;6.980;2023-04-08T06:25:57;67464.53;;;10.45;100.00
5988;BME280;3021;51.000;6.980;2023-04-08T06:28:23;67456.03;;;10.40;100.00
5988;BME280;3021;51.000;6.980;2023-04-08T06:30:49;67452.13;;;10.39;100.00
5988;BME280;3021;51.000;6.980;2023-04-08T06:33:14;67456.03;;;10.40;100.00
5988;BME280;3021;51.000;6.980;2023-04-08T06:35:40;67457.19;;;10.41;100.00
5988;BME280;3021;51.000;6.980;2023-04-08T06:38:06;67498.22;;;10.78;100.00
5988;BME280;3021;51.000;6.980;2023-04-08T06:40:31;67550.09;;;11.21;100.00
5988;BME280;3021;51.000;6.980;2023-04-08T06:42:56;67564.84;;;11.39;100.00
5988;BME280;3021;51.000;6.980;2023-04-08T06:45:24;67558.19;;;11.29;100.00
5988;BME280;3021;51.000;6.980;2023-04-08T06:47:50;67537.66;;;11.15;100.00
5988;BME280;3021;51.000;6.980;2023-04-08T06:50:15;67513.81;;;10.92;100.00
5988;BME280;3021;51.000;6.980;2023-04-08T06:52:41;67517.84;;;10.95;100.00
5988;BME280;3021;51.000;6.980;2023-04-08T06:55:06;67535.22;;;11.11;100.00
5988;BME280;3021;51.000;6.980;2023-04-08T06:57:32;67563.53;;;11.36;100.00
5988;BME280;3021;51.000;6.980;2023-04-08T06:59:57;67594.91;;;11.66;100.00
5988;BME280;3021;51.000;6.980;2023-04-08T07:02:24;67646.25;;;12.09;100.00
5988;BME280;3021;51.000;6.980;2023-04-08T07:04:49;67671.13;;;12.32;100.00
5988;BME280;3021;51.000;6.980;2023-04-08T07:07:15;67695.47;;;12.53;100.00
5988;BME280;3021;51.000;6.980;2023-04-08T07:09:40;67690.25;;;12.49;100.00
5988;BME280;3021;51.000;6.980;2023-04-08T07:12:07;67687.38;;;12.46;100.00
5988;BME280;3021;51.000;6.980;2023-04-08T07:14:33;67686.34;;;12.48;100.00
5988;BME280;3021;51.000;6.980;2023-04-08T07:16:58;67682.72;;;12.42;100.00
5988;BME280;3021;51.000;6.980;2023-04-08T07:19:23;67676.34;;;12.36;100.00
5988;BME280;3021;51.000;6.980;2023-04-08T07:21:49;67679.38;;;12.41;100.00
5988;BME280;3021;51.000;6.980;2023-04-08T07:24:14;67714.69;;;12.73;100.00
5988;BME280;3021;51.000;6.980;2023-04-08T07:26:40;67761.59;;;13.14;100.00
5988;BME280;3021;51.000;6.980;2023-04-08T07:29:06;67844.44;;;13.88;100.00
5988;BME280;3021;51.000;6.980;2023-04-08T07:31:31;67881.97;;;14.19;100.00
5988;BME280;3021;51.000;6.980;2023-04-08T07:33:57;67863.56;;;14.05;100.00
5988;BME280;3021;51.000;6.980;2023-04-08T07:36:22;67826.50;;;13.72;100.00
5988;BME280;3021;51.000;6.980;2023-04-08T07:38:47;67794.63;;;13.44;100.00
5988;BME280;3021;51.000;6.980;2023-04-08T07:41:13;67830.97;;;13.74;100.00
5988;BME280;3021;51.000;6.980;2023-04-08T07:43:38;67978.97;;;15.08;100.00
5988;BME280;3021;51.000;6.980;2023-04-08T07:46:04;67980.00;;;15.06;100.00
5988;BME280;3021;51.000;6.980;2023-04-08T07:48:30;67943.44;;;14.74;100.00
5988;BME280;3021;51.000;6.980;2023-04-08T07:50:57;67913.97;;;14.50;100.00
5988;BME280;3021;51.000;6.980;2023-04-08T07:53:22;67894.28;;;14.32;100.00
5988;BME280;3021;51.000;6.980;2023-04-08T07:55:54;67881.53;;;14.21;100.00
5988;BME280;3021;51.000;6.980;2023-04-08T07:58:19;67886.63;;;14.23;100.00
5988;BME280;3021;51.000;6.980;2023-04-08T08:00:44;67909.94;;;14.46;100.00
5988;BME280;3021;51.000;6.980;2023-04-08T08:03:10;67927.94;;;14.62;100.00
5988;BME280;3021;51.000;6.980;2023-04-08T08:05:35;67926.16;;;14.61;100.00
5988;BME280;3021;51.000;6.980;2023-04-08T08:08:01;67883.28;;;14.23;100.00
5988;BME280;3021;51.000;6.980;2023-04-08T08:10:27;67830.53;;;13.76;100.00
5988;BME280;3021;51.000;6.980;2023-04-08T08:12:52;67802.72;;;13.51;100.00
5988;BME280;3021;51.000;6.980;2023-04-08T08:15:17;67815.94;;;13.60;100.00
5988;BME280;3021;51.000;6.980;2023-04-08T08:17:43;67823.59;;;13.70;100.00
5988;BME280;3021;51.000;6.980;2023-04-08T08:20:08;67812.00;;;13.59;100.00
5988;BME280;3021;51.000;6.980;2023-04-08T08:22:34;67812.00;;;13.59;100.00
5988;BME280;3021;51.000;6.980;2023-04-08T08:24:59;67805.50;;;13.51;100.00
5988;BME280;3021;51.000;6.980;2023-04-08T08:27:25;67806.66;;;13.52;100.00
5988;BME280;3021;51.000;6.980;2023-04-08T08:29:50;67800.72;;;13.44;100.00
5988;BME280;3021;51.000;6.980;2023-04-08T08:32:17;67779.41;;;13.28;100.00
5988;BME280;3021;51.000;6.980;2023-04-08T08:34:42;67763.19;;;13.13;100.00
5988;BME280;3021;51.000;6.980;2023-04-08T08:37:08;67743.06;;;12.98;100.00
5988;BME280;3021;51.000;6.980;2023-04-08T08:39:33;67733.78;;;12.90;100.00
5988;BME280;3021;51.000;6.980;2023-04-08T08:41:59;67766.09;;;13.16;100.00
5988;BME280;3021;51.000;6.980;2023-04-08T08:44:24;67831.69;;;13.77;100.00
5988;BME280;3021;51.000;6.980;2023-04-08T08:46:51;67883.88;;;14.23;100.00
5988;BME280;3021;51.000;6.980;2023-04-08T08:49:16;67918.06;;;14.54;100.00
5988;BME280;3021;51.000;6.980;2023-04-08T08:51:44;67916.88;;;14.52;100.00
5988;BME280;3021;51.000;6.980;2023-04-08T08:54:10;67899.50;;;14.37;100.00
5988;BME280;3021;51.000;6.980;2023-04-08T08:56:35;67868.78;;;14.10;100.00
5988;BME280;3021;51.000;6.980;2023-04-08T08:59:01;67846.03;;;13.87;100.00
5988;BME280;3021;51.000;6.980;2023-04-08T09:01:39;67826.03;;;13.74;100.00
5988;BME280;3021;51.000;6.980;2023-04-08T09:04:13;67816.06;;;13.63;100.00
5988;BME280;3021;51.000;6.980;2023-04-08T09:06:40;67802.59;;;13.48;100.00
5988;BME280;3021;51.000;6.980;2023-04-08T09:09:06;67791.56;;;13.39;100.00
5988;BME280;3021;51.000;6.980;2023-04-08T09:11:42;67794.63;;;13.44;100.00
5988;BME280;3021;51.000;6.980;2023-04-08T09:16:46;67809.69;;;13.57;100.00
5988;BME280;3021;51.000;6.980;2023-04-08T09:19:12;67809.56;;;13.55;100.00
5988;BME280;3021;51.000;6.980;2023-04-08T09:21:38;67806.19;;;13.54;100.00
5988;BME280;3021;51.000;6.980;2023-04-08T09:24:05;67805.63;;;13.54;100.00
5988;BME280;3021;51.000;6.980;2023-04-08T09:26:31;67812.31;;;13.55;100.00
5988;BME280;3021;51.000;6.980;2023-04-08T09:29:14;67811.41;;;13.59;100.00
5988;BME280;3021;51.000;6.980;2023-04-08T09:31:40;67803.91;;;13.52;100.00
5988;BME280;3021;51.000;6.980;2023-04-08T09:34:13;67820.53;;;13.64;100.00
5988;BME280;3021;51.000;6.980;2023-04-08T09:36:43;67816.34;;;13.58;100.00
5988;BME280;3021;51.000;6.980;2023-04-08T09:39:09;67817.66;;;13.62;100.00
5988;BME280;3021;51.000;6.980;2023-04-08T09:41:37;67865.31;;;14.07;100.00
5988;BME280;3021;51.000;6.980;2023-04-08T09:44:06;67960.97;;;14.92;100.00
5988;BME280;3021;51.000;6.980;2023-04-08T09:54:41;68268.81;;;17.67;100.00
5988;BME280;3021;51.000;6.980;2023-04-08T10:05:21;68657.63;;;21.11;100.00
5988;BME280;3021;51.000;6.980;2023-04-08T10:07:49;68622.09;;;20.80;100.00
5988;BME280;3021;51.000;6.980;2023-04-08T10:10:15;68604.03;;;20.64;100.00
5988;BME280;3021;51.000;6.980;2023-04-08T10:12:43;68569.66;;;20.33;100.00
5988;BME280;3021;51.000;6.980;2023-04-08T10:17:48;68527.75;;;19.96;100.00
5988;BME280;3021;51.000;6.980;2023-04-08T10:22:59;68296.59;;;17.89;100.00
5988;BME280;3021;51.000;6.980;2023-04-08T10:28:00;68181.97;;;16.85;100.00
5988;BME280;3021;51.000;6.980;2023-04-08T10:32:52;68213.50;;;17.16;100.00
5988;BME280;3021;51.000;6.980;2023-04-08T10:35:28;68209.31;;;17.09;100.00
5988;BME280;3021;51.000;6.980;2023-04-08T10:37:54;68151.47;;;16.63;100.00
5988;BME280;3021;51.000;6.980;2023-04-08T10:40:20;68169.34;;;16.76;100.00
5988;BME280;3021;51.000;6.980;2023-04-08T10:42:45;68190.72;;;16.93;100.00
5988;BME280;3021;51.000;6.980;2023-04-08T10:45:15;68163.66;;;16.74;100.00
5988;BME280;3021;51.000;6.980;2023-04-08T10:47:41;68131.59;;;16.43;100.00
5988;BME280;3021;51.000;6.980;2023-04-08T10:50:14;68096.75;;;16.12;100.00
5988;BME280;3021;51.000;6.980;2023-04-08T10:52:50;68091.97;;;16.05;100.00
5988;BME280;3021;51.000;6.980;2023-04-08T10:55:24;68096.16;;;16.12;100.00
5988;BME280;3021;51.000;6.980;2023-04-08T10:57:51;68132.63;;;16.41;100.00
5988;BME280;3021;51.000;6.980;2023-04-08T11:00:17;68162.94;;;16.71;100.00
5988;BME280;3021;51.000;6.980;2023-04-08T11:02:42;68172.81;;;16.80;100.00
5988;BME280;3021;51.000;6.980;2023-04-08T11:05:09;68152.63;;;16.64;100.00
5988;BME280;3021;51.000;6.980;2023-04-08T11:07:40;68146.09;;;16.56;100.00
5988;BME280;3021;51.000;6.980;2023-04-08T11:10:06;68157.00;;;16.63;100.00
5988;BME280;3021;51.000;6.980;2023-04-08T11:12:32;68163.38;;;16.69;100.00
5988;BME280;3021;51.000;6.980;2023-04-08T11:14:58;68186.50;;;16.87;100.00
5988;BME280;3021;51.000;6.980;2023-04-08T11:17:23;68189.69;;;16.95;100.00
5988;BME280;3021;51.000;6.980;2023-04-08T11:19:49;68204.09;;;17.05;100.00
5988;BME280;3021;51.000;6.980;2023-04-08T11:22:14;68193.75;;;16.98;100.00
5988;BME280;3021;51.000;6.980;2023-04-08T11:24:40;68172.81;;;16.80;100.00
5988;BME280;3021;51.000;6.980;2023-04-08T11:27:06;68126.50;;;16.41;100.00
5988;BME280;3021;51.000;6.980;2023-04-08T11:29:32;68103.88;;;16.21;100.00
5988;BME280;3021;51.000;6.980;2023-04-08T11:31:58;68144.94;;;16.55;100.00
5988;BME280;3021;51.000;6.980;2023-04-08T11:34:24;68168.16;;;16.75;100.00
5988;BME280;3021;51.000;6.980;2023-04-08T11:36:50;68164.69;;;16.72;100.00
5988;BME280;3021;51.000;6.980;2023-04-08T11:39:16;68129.28;;;16.41;100.00
5988;BME280;3021;51.000;6.980;2023-04-08T11:41:41;68119.41;;;16.32;100.00
5988;BME280;3021;51.000;6.980;2023-04-08T11:44:07;68141.47;;;16.52;100.00
5988;BME280;3021;51.000;6.980;2023-04-08T11:46:33;68125.19;;;16.37;100.00
5988;BME280;3021;51.000;6.980;2023-04-08T11:51:27;68081.53;;;15.96;100.00
5988;BME280;3021;51.000;6.980;2023-04-08T11:53:53;68052.06;;;15.72;100.00
5988;BME280;3021;51.000;6.980;2023-04-08T11:56:21;68062.38;;;15.79;100.00
5988;BME280;3021;51.000;6.980;2023-04-08T11:58:48;68112.41;;;16.26;100.00
5988;BME280;3021;51.000;6.980;2023-04-08T12:01:13;68157.13;;;16.66;100.00
5988;BME280;3021;51.000;6.980;2023-04-08T12:03:41;68188.53;;;16.93;100.00
5988;BME280;3021;51.000;6.980;2023-04-08T12:06:17;68223.97;;;17.25;100.00
5988;BME280;3021;51.000;6.980;2023-04-08T12:08:42;68232.41;;;17.27;100.00
5988;BME280;3021;51.000;6.980;2023-04-08T12:11:08;68227.44;;;17.28;100.00
5988;BME280;3021;51.000;6.980;2023-04-08T12:13:34;68244.88;;;17.43;100.00
5988;BME280;3021;51.000;6.980;2023-04-08T12:15:59;68227.44;;;17.28;100.00
5988;BME280;3021;51.000;6.980;2023-04-08T12:18:24;68202.91;;;17.04;100.00
5988;BME280;3021;51.000;6.980;2023-04-08T12:20:50;68195.50;;;17.00;100.00
5988;BME280;3021;51.000;6.980;2023-04-08T12:23:15;68181.53;;;16.87;100.00
5988;BME280;3021;51.000;6.980;2023-04-08T12:25:40;68142.03;;;16.52;100.00
5988;BME280;3021;51.000;6.980;2023-04-08T12:28:06;68086.91;;;16.03;100.00
5988;BME280;3021;51.000;6.980;2023-04-08T12:30:33;68051.91;;;15.70;100.00
5988;BME280;3021;51.000;6.980;2023-04-08T12:32:59;68034.06;;;15.57;100.00
5988;BME280;3021;51.000;6.980;2023-04-08T12:35:24;68010.84;;;15.36;100.00
5988;BME280;3021;51.000;6.980;2023-04-08T12:37:49;67984.03;;;15.10;100.00
5988;BME280;3021;51.000;6.980;2023-04-08T12:40:15;67967.81;;;14.95;100.00
5988;BME280;3021;51.000;6.980;2023-04-08T12:42:46;67985.91;;;15.14;100.00
5988;BME280;3021;51.000;6.980;2023-04-08T12:45:15;68010.84;;;15.36;100.00
5988;BME280;3021;51.000;6.980;2023-04-08T12:47:40;68047.84;;;15.66;100.00
5988;BME280;3021;51.000;6.980;2023-04-08T12:50:06;68063.53;;;15.80;100.00
5988;BME280;3021;51.000;6.980;2023-04-08T12:52:33;68046.84;;;15.68;100.00
5988;BME280;3021;51.000;6.980;2023-04-08T12:54:59;68051.34;;;15.69;100.00
5988;BME280;3021;51.000;6.980;2023-04-08T12:57:25;68054.97;;;15.75;100.00
5988;BME280;3021;51.000;6.980;2023-04-08T12:59:51;68066.00;;;15.85;100.00
5988;BME280;3021;51.000;6.980;2023-04-08T13:02:16;68082.25;;;15.99;100.00
5988;BME280;3021;51.000;6.980;2023-04-08T13:04:42;68123.91;;;16.34;100.00
5988;BME280;3021;51.000;6.980;2023-04-08T13:07:07;68154.81;;;16.64;100.00
5988;BME280;3021;51.000;6.980;2023-04-08T13:09:32;68223.97;;;17.25;100.00
5988;BME280;3021;51.000;6.980;2023-04-08T13:11:58;68290.66;;;17.82;100.00
5988;BME280;3021;51.000;6.980;2023-04-08T13:14:24;68349.53;;;18.36;100.00
5988;BME280;3021;51.000;6.980;2023-04-08T13:16:49;68433.19;;;19.08;100.00
5988;BME280;3021;51.000;6.980;2023-04-08T13:19:14;68439.25;;;19.18;100.00
5988;BME280;3021;51.000;6.980;2023-04-08T13:21:40;68429.81;;;19.07;100.00
5988;BME280;3021;51.000;6.980;2023-04-08T13:24:05;68404.78;;;18.85;100.00
5988;BME280;3021;51.000;6.980;2023-04-08T13:26:31;68308.25;;;18.00;100.00
5988;BME280;3021;51.000;6.980;2023-04-08T13:28:56;68201.88;;;17.05;100.00
5988;BME280;3021;51.000;6.980;2023-04-08T13:31:22;68138.44;;;16.47;100.00
5988;BME280;3021;51.000;6.980;2023-04-08T13:33:47;68105.31;;;16.17;100.00
5988;BME280;3021;51.000;6.980;2023-04-08T13:36:12;68085.59;;;16.00;100.00
5988;BME280;3021;51.000;6.980;2023-04-08T13:38:41;68089.06;;;16.03;100.00
5988;BME280;3021;51.000;6.980;2023-04-08T13:41:06;68114.75;;;16.28;100.00
5988;BME280;3021;51.000;6.980;2023-04-08T13:43:34;68140.31;;;16.51;100.00
5988;BME280;3021;51.000;6.980;2023-04-08T13:46:00;68174.41;;;16.79;100.00